Parma Airport LIMP

Flugplatz Daten

Name: Parma Airport

Ident: LIMP

Lat: 44,82450104

Long: 10,29640007

Platzhöhe: 161 ft

IataCode: PMF

City: Parma

Metar

2021/12/03 21:50
LIMP 032150Z 21004KT CAVOK 03/03 Q1015

Taf

2021/12/03 18:21
TAF LIMP 031700Z 0318/0418 VRB05KT 7000 FEW050
BECMG 0320/0322 3000 BR
TEMPO 0400/0408 1000 BCFG BKN001
BECMG 0408/0410 6000
Gewünschte Webcam nicht vorhanden? Dann fügen Sie eine hinzu. Sie wird dann so schnell wie möglich freigeschaltet
Url: Title: